sensor_id;sensor_type;location;lat;lon;timestamp;P1;durP1;ratioP1;P2;durP2;ratioP2
26824;SDS011;14402;48.178;11.566;2023-11-21T00:00:12;4.9;;;1.5;;
26824;SDS011;14402;48.178;11.566;2023-11-21T00:00:42;4.9;;;1.5;;
26824;SDS011;14402;48.178;11.566;2023-11-21T00:01:12;4.9;;;1.5;;
26824;SDS011;14402;48.178;11.566;2023-11-21T00:01:42;4.0;;;1.4;;
26824;SDS011;14402;48.178;11.566;2023-11-21T00:02:12;3.1;;;1.3;;
26824;SDS011;14402;48.178;11.566;2023-11-21T00:02:43;3.1;;;1.3;;
26824;SDS011;14402;48.178;11.566;2023-11-21T00:03:12;3.1;;;1.3;;
26824;SDS011;14402;48.178;11.566;2023-11-21T00:03:43;3.8;;;1.4;;
26824;SDS011;14402;48.178;11.566;2023-11-21T00:04:13;4.6;;;1.5;;
26824;SDS011;14402;48.178;11.566;2023-11-21T00:04:43;4.6;;;1.5;;
26824;SDS011;14402;48.178;11.566;2023-11-21T00:05:13;4.6;;;1.5;;
26824;SDS011;14402;48.178;11.566;2023-11-21T00:05:43;5.1;;;1.5;;
26824;SDS011;14402;48.178;11.566;2023-11-21T00:06:13;5.6;;;1.4;;
26824;SDS011;14402;48.178;11.566;2023-11-21T00:06:43;5.6;;;1.4;;
26824;SDS011;14402;48.178;11.566;2023-11-21T00:07:13;5.6;;;1.4;;
26824;SDS011;14402;48.178;11.566;2023-11-21T00:07:43;5.2;;;1.5;;
26824;SDS011;14402;48.178;11.566;2023-11-21T00:08:13;4.9;;;1.6;;
26824;SDS011;14402;48.178;11.566;2023-11-21T00:08:43;4.9;;;1.6;;
26824;SDS011;14402;48.178;11.566;2023-11-21T00:09:13;4.9;;;1.6;;
26824;SDS011;14402;48.178;11.566;2023-11-21T00:09:43;4.6;;;1.5;;
26824;SDS011;14402;48.178;11.566;2023-11-21T00:10:13;4.3;;;1.5;;
26824;SDS011;14402;48.178;11.566;2023-11-21T00:10:43;4.3;;;1.5;;
26824;SDS011;14402;48.178;11.566;2023-11-21T00:11:13;4.3;;;1.5;;
26824;SDS011;14402;48.178;11.566;2023-11-21T00:11:44;4.5;;;1.5;;
26824;SDS011;14402;48.178;11.566;2023-11-21T00:12:14;4.7;;;1.4;;
26824;SDS011;14402;48.178;11.566;2023-11-21T00:12:44;4.7;;;1.4;;
26824;SDS011;14402;48.178;11.566;2023-11-21T00:13:14;4.7;;;1.4;;
26824;SDS011;14402;48.178;11.566;2023-11-21T00:13:44;4.7;;;1.3;;
26824;SDS011;14402;48.178;11.566;2023-11-21T00:14:14;4.7;;;1.3;;
26824;SDS011;14402;48.178;11.566;2023-11-21T00:14:44;4.7;;;1.3;;
26824;SDS011;14402;48.178;11.566;2023-11-21T00:15:14;4.7;;;1.3;;
26824;SDS011;14402;48.178;11.566;2023-11-21T00:15:44;4.2;;;1.3;;
26824;SDS011;14402;48.178;11.566;2023-11-21T00:16:14;3.8;;;1.3;;
26824;SDS011;14402;48.178;11.566;2023-11-21T00:16:44;3.8;;;1.3;;
26824;SDS011;14402;48.178;11.566;2023-11-21T00:17:15;3.8;;;1.3;;
26824;SDS011;14402;48.178;11.566;2023-11-21T00:17:44;5.1;;;1.3;;
26824;SDS011;14402;48.178;11.566;2023-11-21T00:18:14;6.3;;;1.4;;
26824;SDS011;14402;48.178;11.566;2023-11-21T00:18:44;6.3;;;1.4;;
26824;SDS011;14402;48.178;11.566;2023-11-21T00:19:14;6.3;;;1.4;;
26824;SDS011;14402;48.178;11.566;2023-11-21T00:19:44;4.9;;;1.3;;
26824;SDS011;14402;48.178;11.566;2023-11-21T00:20:14;3.5;;;1.2;;
26824;SDS011;14402;48.178;11.566;2023-11-21T00:20:44;3.5;;;1.2;;
26824;SDS011;14402;48.178;11.566;2023-11-21T00:21:15;3.5;;;1.2;;
26824;SDS011;14402;48.178;11.566;2023-11-21T00:21:45;12.4;;;1.6;;
26824;SDS011;14402;48.178;11.566;2023-11-21T00:22:15;21.2;;;2.0;;
26824;SDS011;14402;48.178;11.566;2023-11-21T00:22:45;21.2;;;2.0;;
26824;SDS011;14402;48.178;11.566;2023-11-21T00:23:15;21.2;;;2.0;;
26824;SDS011;14402;48.178;11.566;2023-11-21T00:23:45;11.9;;;1.5;;
26824;SDS011;14402;48.178;11.566;2023-11-21T00:24:15;2.5;;;1.1;;
26824;SDS011;14402;48.178;11.566;2023-11-21T00:24:45;2.5;;;1.1;;
26824;SDS011;14402;48.178;11.566;2023-11-21T00:25:15;2.5;;;1.1;;
26824;SDS011;14402;48.178;11.566;2023-11-21T00:25:45;2.5;;;1.0;;
26824;SDS011;14402;48.178;11.566;2023-11-21T00:26:15;2.6;;;0.9;;
26824;SDS011;14402;48.178;11.566;2023-11-21T00:26:45;2.6;;;0.9;;
26824;SDS011;14402;48.178;11.566;2023-11-21T00:27:15;2.6;;;0.9;;
26824;SDS011;14402;48.178;11.566;2023-11-21T00:27:45;2.8;;;0.9;;
26824;SDS011;14402;48.178;11.566;2023-11-21T00:28:15;3.1;;;0.9;;
26824;SDS011;14402;48.178;11.566;2023-11-21T00:28:46;3.1;;;0.9;;
26824;SDS011;14402;48.178;11.566;2023-11-21T00:29:16;3.1;;;0.9;;
26824;SDS011;14402;48.178;11.566;2023-11-21T00:29:46;3.0;;;0.9;;
26824;SDS011;14402;48.178;11.566;2023-11-21T00:30:16;2.9;;;0.8;;
26824;SDS011;14402;48.178;11.566;2023-11-21T00:30:46;2.9;;;0.8;;
26824;SDS011;14402;48.178;11.566;2023-11-21T00:31:16;2.9;;;0.8;;
26824;SDS011;14402;48.178;11.566;2023-11-21T00:31:46;2.7;;;0.8;;
26824;SDS011;14402;48.178;11.566;2023-11-21T00:32:16;2.5;;;0.8;;
26824;SDS011;14402;48.178;11.566;2023-11-21T00:32:46;2.5;;;0.8;;
26824;SDS011;14402;48.178;11.566;2023-11-21T00:33:16;2.5;;;0.8;;
26824;SDS011;14402;48.178;11.566;2023-11-21T00:33:46;2.5;;;0.8;;
26824;SDS011;14402;48.178;11.566;2023-11-21T00:34:16;2.6;;;0.7;;
26824;SDS011;14402;48.178;11.566;2023-11-21T00:34:47;2.6;;;0.7;;
26824;SDS011;14402;48.178;11.566;2023-11-21T00:35:17;2.6;;;0.7;;
26824;SDS011;14402;48.178;11.566;2023-11-21T00:35:47;2.3;;;0.6;;
26824;SDS011;14402;48.178;11.566;2023-11-21T00:36:17;2.0;;;0.6;;
26824;SDS011;14402;48.178;11.566;2023-11-21T00:36:47;2.0;;;0.6;;
26824;SDS011;14402;48.178;11.566;2023-11-21T00:37:17;2.0;;;0.6;;
26824;SDS011;14402;48.178;11.566;2023-11-21T00:37:47;2.1;;;0.6;;
26824;SDS011;14402;48.178;11.566;2023-11-21T00:38:17;2.2;;;0.7;;
26824;SDS011;14402;48.178;11.566;2023-11-21T00:38:47;2.2;;;0.7;;
26824;SDS011;14402;48.178;11.566;2023-11-21T00:39:17;2.2;;;0.7;;
26824;SDS011;14402;48.178;11.566;2023-11-21T00:39:47;2.3;;;0.8;;
26824;SDS011;14402;48.178;11.566;2023-11-21T00:40:18;2.4;;;0.8;;
26824;SDS011;14402;48.178;11.566;2023-11-21T00:40:48;2.4;;;0.8;;
26824;SDS011;14402;48.178;11.566;2023-11-21T00:41:18;2.4;;;0.8;;
26824;SDS011;14402;48.178;11.566;2023-11-21T00:41:48;2.2;;;0.8;;
26824;SDS011;14402;48.178;11.566;2023-11-21T00:42:18;2.0;;;0.8;;
26824;SDS011;14402;48.178;11.566;2023-11-21T00:42:48;2.0;;;0.8;;
26824;SDS011;14402;48.178;11.566;2023-11-21T00:43:18;2.0;;;0.8;;
26824;SDS011;14402;48.178;11.566;2023-11-21T00:43:48;2.1;;;0.7;;
26824;SDS011;14402;48.178;11.566;2023-11-21T00:44:18;2.2;;;0.6;;
26824;SDS011;14402;48.178;11.566;2023-11-21T00:44:48;2.2;;;0.6;;
26824;SDS011;14402;48.178;11.566;2023-11-21T00:45:18;2.2;;;0.6;;
26824;SDS011;14402;48.178;11.566;2023-11-21T00:45:48;2.3;;;0.8;;
26824;SDS011;14402;48.178;11.566;2023-11-21T00:46:18;2.5;;;0.9;;
26824;SDS011;14402;48.178;11.566;2023-11-21T00:46:48;2.5;;;0.9;;
26824;SDS011;14402;48.178;11.566;2023-11-21T00:47:18;2.5;;;0.9;;
26824;SDS011;14402;48.178;11.566;2023-11-21T00:47:48;2.2;;;0.8;;
26824;SDS011;14402;48.178;11.566;2023-11-21T00:48:19;1.8;;;0.6;;
26824;SDS011;14402;48.178;11.566;2023-11-21T00:48:49;1.8;;;0.6;;
26824;SDS011;14402;48.178;11.566;2023-11-21T00:49:19;1.8;;;0.6;;
26824;SDS011;14402;48.178;11.566;2023-11-21T00:49:49;1.9;;;0.6;;
26824;SDS011;14402;48.178;11.566;2023-11-21T00:50:19;2.1;;;0.7;;
26824;SDS011;14402;48.178;11.566;2023-11-21T00:50:49;2.1;;;0.7;;
26824;SDS011;14402;48.178;11.566;2023-11-21T00:51:19;2.1;;;0.7;;
26824;SDS011;14402;48.178;11.566;2023-11-21T00:51:49;2.0;;;0.7;;
26824;SDS011;14402;48.178;11.566;2023-11-21T00:52:19;1.9;;;0.7;;
26824;SDS011;14402;48.178;11.566;2023-11-21T00:52:49;1.9;;;0.7;;
26824;SDS011;14402;48.178;11.566;2023-11-21T00:53:19;1.9;;;0.7;;
26824;SDS011;14402;48.178;11.566;2023-11-21T00:53:49;2.0;;;0.6;;
26824;SDS011;14402;48.178;11.566;2023-11-21T00:54:19;2.0;;;0.6;;
26824;SDS011;14402;48.178;11.566;2023-11-21T00:54:49;2.0;;;0.6;;
26824;SDS011;14402;48.178;11.566;2023-11-21T00:55:19;2.0;;;0.6;;
26824;SDS011;14402;48.178;11.566;2023-11-21T00:55:49;1.8;;;0.6;;
26824;SDS011;14402;48.178;11.566;2023-11-21T00:56:19;1.6;;;0.6;;
26824;SDS011;14402;48.178;11.566;2023-11-21T00:56:49;1.6;;;0.6;;
26824;SDS011;14402;48.178;11.566;2023-11-21T00:57:19;1.6;;;0.6;;
26824;SDS011;14402;48.178;11.566;2023-11-21T00:57:49;2.3;;;0.7;;
26824;SDS011;14402;48.178;11.566;2023-11-21T00:58:20;3.0;;;0.8;;
26824;SDS011;14402;48.178;11.566;2023-11-21T00:58:50;3.0;;;0.8;;
26824;SDS011;14402;48.178;11.566;2023-11-21T00:59:20;3.0;;;0.8;;
26824;SDS011;14402;48.178;11.566;2023-11-21T00:59:50;2.5;;;0.8;;
26824;SDS011;14402;48.178;11.566;2023-11-21T01:00:20;2.0;;;0.8;;
26824;SDS011;14402;48.178;11.566;2023-11-21T01:00:50;2.0;;;0.8;;
26824;SDS011;14402;48.178;11.566;2023-11-21T01:01:20;2.0;;;0.8;;
26824;SDS011;14402;48.178;11.566;2023-11-21T01:01:50;2.3;;;0.8;;
26824;SDS011;14402;48.178;11.566;2023-11-21T01:02:20;2.6;;;0.7;;
26824;SDS011;14402;48.178;11.566;2023-11-21T01:02:50;2.6;;;0.7;;
26824;SDS011;14402;48.178;11.566;2023-11-21T01:03:20;2.6;;;0.7;;
26824;SDS011;14402;48.178;11.566;2023-11-21T01:03:50;2.9;;;0.7;;
26824;SDS011;14402;48.178;11.566;2023-11-21T01:04:20;3.2;;;0.7;;
26824;SDS011;14402;48.178;11.566;2023-11-21T01:04:50;3.2;;;0.7;;
26824;SDS011;14402;48.178;11.566;2023-11-21T01:05:20;3.2;;;0.7;;
26824;SDS011;14402;48.178;11.566;2023-11-21T01:05:50;2.7;;;0.8;;
26824;SDS011;14402;48.178;11.566;2023-11-21T01:06:20;2.2;;;0.8;;
26824;SDS011;14402;48.178;11.566;2023-11-21T01:06:50;2.2;;;0.8;;
26824;SDS011;14402;48.178;11.566;2023-11-21T01:07:21;2.2;;;0.8;;
26824;SDS011;14402;48.178;11.566;2023-11-21T01:07:51;2.4;;;0.8;;
26824;SDS011;14402;48.178;11.566;2023-11-21T01:08:21;2.6;;;0.8;;
26824;SDS011;14402;48.178;11.566;2023-11-21T01:08:51;2.6;;;0.8;;
26824;SDS011;14402;48.178;11.566;2023-11-21T01:09:21;2.6;;;0.8;;
26824;SDS011;14402;48.178;11.566;2023-11-21T01:09:51;2.8;;;0.8;;
26824;SDS011;14402;48.178;11.566;2023-11-21T01:10:21;2.9;;;0.8;;
26824;SDS011;14402;48.178;11.566;2023-11-21T01:10:51;2.9;;;0.8;;
26824;SDS011;14402;48.178;11.566;2023-11-21T01:11:21;2.9;;;0.8;;
26824;SDS011;14402;48.178;11.566;2023-11-21T01:11:51;2.3;;;0.8;;
26824;SDS011;14402;48.178;11.566;2023-11-21T01:12:21;1.8;;;0.7;;
26824;SDS011;14402;48.178;11.566;2023-11-21T01:12:51;1.8;;;0.7;;
26824;SDS011;14402;48.178;11.566;2023-11-21T01:13:21;1.8;;;0.7;;
26824;SDS011;14402;48.178;11.566;2023-11-21T01:13:51;2.4;;;0.8;;
26824;SDS011;14402;48.178;11.566;2023-11-21T01:14:21;3.1;;;0.9;;
26824;SDS011;14402;48.178;11.566;2023-11-21T01:14:51;3.1;;;0.9;;
26824;SDS011;14402;48.178;11.566;2023-11-21T01:15:22;3.1;;;0.9;;
26824;SDS011;14402;48.178;11.566;2023-11-21T01:15:52;3.0;;;0.9;;
26824;SDS011;14402;48.178;11.566;2023-11-21T01:16:22;2.9;;;0.9;;
26824;SDS011;14402;48.178;11.566;2023-11-21T01:16:52;2.9;;;0.9;;
26824;SDS011;14402;48.178;11.566;2023-11-21T01:17:23;2.9;;;0.9;;
26824;SDS011;14402;48.178;11.566;2023-11-21T01:17:52;2.7;;;0.9;;
26824;SDS011;14402;48.178;11.566;2023-11-21T01:18:22;2.5;;;0.8;;
26824;SDS011;14402;48.178;11.566;2023-11-21T01:18:52;2.5;;;0.8;;
26824;SDS011;14402;48.178;11.566;2023-11-21T01:19:22;2.5;;;0.8;;
26824;SDS011;14402;48.178;11.566;2023-11-21T01:19:52;2.5;;;0.8;;
26824;SDS011;14402;48.178;11.566;2023-11-21T01:20:22;2.4;;;0.8;;
26824;SDS011;14402;48.178;11.566;2023-11-21T01:20:52;2.4;;;0.8;;
26824;SDS011;14402;48.178;11.566;2023-11-21T01:21:22;2.4;;;0.8;;
26824;SDS011;14402;48.178;11.566;2023-11-21T01:21:52;2.3;;;0.8;;
26824;SDS011;14402;48.178;11.566;2023-11-21T01:22:22;2.3;;;0.8;;
26824;SDS011;14402;48.178;11.566;2023-11-21T01:22:52;2.3;;;0.8;;
26824;SDS011;14402;48.178;11.566;2023-11-21T01:23:22;2.3;;;0.8;;
26824;SDS011;14402;48.178;11.566;2023-11-21T01:23:52;2.1;;;0.8;;
26824;SDS011;14402;48.178;11.566;2023-11-21T01:24:23;1.9;;;0.7;;
26824;SDS011;14402;48.178;11.566;2023-11-21T01:24:53;1.9;;;0.7;;
26824;SDS011;14402;48.178;11.566;2023-11-21T01:25:23;1.9;;;0.7;;
26824;SDS011;14402;48.178;11.566;2023-11-21T01:25:53;2.5;;;0.7;;
26824;SDS011;14402;48.178;11.566;2023-11-21T01:26:23;3.2;;;0.7;;
26824;SDS011;14402;48.178;11.566;2023-11-21T01:26:53;3.2;;;0.7;;
26824;SDS011;14402;48.178;11.566;2023-11-21T01:27:23;3.2;;;0.7;;
26824;SDS011;14402;48.178;11.566;2023-11-21T01:27:53;3.1;;;0.8;;
26824;SDS011;14402;48.178;11.566;2023-11-21T01:28:23;2.9;;;0.8;;
26824;SDS011;14402;48.178;11.566;2023-11-21T01:28:53;2.9;;;0.8;;
26824;SDS011;14402;48.178;11.566;2023-11-21T01:29:23;2.9;;;0.8;;
26824;SDS011;14402;48.178;11.566;2023-11-21T01:29:53;2.6;;;0.9;;
26824;SDS011;14402;48.178;11.566;2023-11-21T01:30:23;2.3;;;1.0;;
26824;SDS011;14402;48.178;11.566;2023-11-21T01:30:53;2.3;;;1.0;;
26824;SDS011;14402;48.178;11.566;2023-11-21T01:31:23;2.3;;;1.0;;
26824;SDS011;14402;48.178;11.566;2023-11-21T01:31:53;2.5;;;1.0;;
26824;SDS011;14402;48.178;11.566;2023-11-21T01:32:23;2.8;;;1.0;;
26824;SDS011;14402;48.178;11.566;2023-11-21T01:32:53;2.8;;;1.0;;
26824;SDS011;14402;48.178;11.566;2023-11-21T01:33:23;2.8;;;1.0;;
26824;SDS011;14402;48.178;11.566;2023-11-21T01:33:53;2.7;;;1.0;;
26824;SDS011;14402;48.178;11.566;2023-11-21T01:34:23;2.5;;;1.0;;
26824;SDS011;14402;48.178;11.566;2023-11-21T01:34:54;2.5;;;1.0;;
26824;SDS011;14402;48.178;11.566;2023-11-21T01:35:24;2.5;;;1.0;;
26824;SDS011;14402;48.178;11.566;2023-11-21T01:35:54;3.1;;;1.0;;
26824;SDS011;14402;48.178;11.566;2023-11-21T01:36:29;3.7;;;1.0;;
26824;SDS011;14402;48.178;11.566;2023-11-21T01:36:54;3.7;;;1.0;;
26824;SDS011;14402;48.178;11.566;2023-11-21T01:37:24;3.7;;;1.0;;
26824;SDS011;14402;48.178;11.566;2023-11-21T01:37:54;3.5;;;0.9;;
26824;SDS011;14402;48.178;11.566;2023-11-21T01:38:24;3.2;;;0.8;;
26824;SDS011;14402;48.178;11.566;2023-11-21T01:38:54;3.2;;;0.8;;
26824;SDS011;14402;48.178;11.566;2023-11-21T01:39:24;3.2;;;0.8;;
26824;SDS011;14402;48.178;11.566;2023-11-21T01:39:54;2.7;;;0.9;;
26824;SDS011;14402;48.178;11.566;2023-11-21T01:40:24;2.1;;;0.9;;
26824;SDS011;14402;48.178;11.566;2023-11-21T01:40:54;2.1;;;0.9;;
26824;SDS011;14402;48.178;11.566;2023-11-21T01:41:24;2.1;;;0.9;;
26824;SDS011;14402;48.178;11.566;2023-11-21T01:41:54;2.9;;;1.0;;
26824;SDS011;14402;48.178;11.566;2023-11-21T01:42:24;3.8;;;1.2;;
26824;SDS011;14402;48.178;11.566;2023-11-21T01:42:54;3.8;;;1.2;;
26824;SDS011;14402;48.178;11.566;2023-11-21T01:43:25;3.8;;;1.2;;
26824;SDS011;14402;48.178;11.566;2023-11-21T01:43:55;3.4;;;1.2;;
26824;SDS011;14402;48.178;11.566;2023-11-21T01:44:25;3.0;;;1.1;;
26824;SDS011;14402;48.178;11.566;2023-11-21T01:44:55;3.0;;;1.1;;
26824;SDS011;14402;48.178;11.566;2023-11-21T01:45:25;3.0;;;1.1;;
26824;SDS011;14402;48.178;11.566;2023-11-21T01:45:55;3.0;;;1.0;;
26824;SDS011;14402;48.178;11.566;2023-11-21T01:46:25;3.0;;;1.0;;
26824;SDS011;14402;48.178;11.566;2023-11-21T01:46:55;3.0;;;1.0;;
26824;SDS011;14402;48.178;11.566;2023-11-21T01:47:25;3.0;;;1.0;;
26824;SDS011;14402;48.178;11.566;2023-11-21T01:47:55;3.2;;;1.2;;
26824;SDS011;14402;48.178;11.566;2023-11-21T01:48:25;3.4;;;1.4;;
26824;SDS011;14402;48.178;11.566;2023-11-21T01:48:55;3.4;;;1.4;;
26824;SDS011;14402;48.178;11.566;2023-11-21T01:49:25;3.4;;;1.4;;
26824;SDS011;14402;48.178;11.566;2023-11-21T01:49:55;3.3;;;1.2;;
26824;SDS011;14402;48.178;11.566;2023-11-21T01:50:25;3.2;;;1.0;;
26824;SDS011;14402;48.178;11.566;2023-11-21T01:50:55;3.2;;;1.0;;
26824;SDS011;14402;48.178;11.566;2023-11-21T01:51:25;3.2;;;1.0;;
26824;SDS011;14402;48.178;11.566;2023-11-21T01:51:55;2.9;;;1.1;;
26824;SDS011;14402;48.178;11.566;2023-11-21T01:52:26;2.6;;;1.3;;
26824;SDS011;14402;48.178;11.566;2023-11-21T01:52:56;2.6;;;1.3;;
26824;SDS011;14402;48.178;11.566;2023-11-21T01:53:26;2.6;;;1.3;;
26824;SDS011;14402;48.178;11.566;2023-11-21T01:53:56;3.4;;;1.4;;
26824;SDS011;14402;48.178;11.566;2023-11-21T01:54:26;4.2;;;1.5;;
26824;SDS011;14402;48.178;11.566;2023-11-21T01:54:56;4.2;;;1.5;;
26824;SDS011;14402;48.178;11.566;2023-11-21T01:55:26;4.2;;;1.5;;
26824;SDS011;14402;48.178;11.566;2023-11-21T01:55:56;3.6;;;1.4;;
26824;SDS011;14402;48.178;11.566;2023-11-21T01:56:26;3.0;;;1.2;;
26824;SDS011;14402;48.178;11.566;2023-11-21T01:56:56;3.0;;;1.2;;
26824;SDS011;14402;48.178;11.566;2023-11-21T01:57:26;3.0;;;1.2;;
26824;SDS011;14402;48.178;11.566;2023-11-21T01:57:56;3.3;;;1.2;;
26824;SDS011;14402;48.178;11.566;2023-11-21T01:58:26;3.6;;;1.3;;
26824;SDS011;14402;48.178;11.566;2023-11-21T01:58:56;3.6;;;1.3;;
26824;SDS011;14402;48.178;11.566;2023-11-21T01:59:26;3.6;;;1.3;;
26824;SDS011;14402;48.178;11.566;2023-11-21T01:59:56;3.4;;;1.2;;
26824;SDS011;14402;48.178;11.566;2023-11-21T02:00:26;3.3;;;1.1;;
26824;SDS011;14402;48.178;11.566;2023-11-21T02:00:57;3.3;;;1.1;;
26824;SDS011;14402;48.178;11.566;2023-11-21T02:01:27;3.3;;;1.1;;
26824;SDS011;14402;48.178;11.566;2023-11-21T02:01:57;3.0;;;1.0;;
26824;SDS011;14402;48.178;11.566;2023-11-21T02:02:27;2.8;;;1.0;;
26824;SDS011;14402;48.178;11.566;2023-11-21T02:02:57;2.8;;;1.0;;
26824;SDS011;14402;48.178;11.566;2023-11-21T02:03:27;2.8;;;1.0;;
26824;SDS011;14402;48.178;11.566;2023-11-21T02:03:57;3.3;;;1.0;;
26824;SDS011;14402;48.178;11.566;2023-11-21T02:04:27;3.8;;;1.1;;
26824;SDS011;14402;48.178;11.566;2023-11-21T02:04:57;3.8;;;1.1;;
26824;SDS011;14402;48.178;11.566;2023-11-21T02:05:27;3.8;;;1.1;;
26824;SDS011;14402;48.178;11.566;2023-11-21T02:05:57;4.1;;;1.2;;
26824;SDS011;14402;48.178;11.566;2023-11-21T02:06:27;4.4;;;1.3;;
26824;SDS011;14402;48.178;11.566;2023-11-21T02:06:57;4.4;;;1.3;;
26824;SDS011;14402;48.178;11.566;2023-11-21T02:07:27;4.4;;;1.3;;
26824;SDS011;14402;48.178;11.566;2023-11-21T02:07:57;3.8;;;1.1;;
26824;SDS011;14402;48.178;11.566;2023-11-21T02:08:27;3.2;;;1.0;;
26824;SDS011;14402;48.178;11.566;2023-11-21T02:08:57;3.2;;;1.0;;
26824;SDS011;14402;48.178;11.566;2023-11-21T02:09:28;3.2;;;1.0;;
26824;SDS011;14402;48.178;11.566;2023-11-21T02:09:57;3.9;;;1.0;;
26824;SDS011;14402;48.178;11.566;2023-11-21T02:10:28;4.6;;;1.0;;
26824;SDS011;14402;48.178;11.566;2023-11-21T02:10:58;4.6;;;1.0;;
26824;SDS011;14402;48.178;11.566;2023-11-21T02:11:28;4.6;;;1.0;;
26824;SDS011;14402;48.178;11.566;2023-11-21T02:11:58;4.4;;;1.2;;
26824;SDS011;14402;48.178;11.566;2023-11-21T02:12:28;4.3;;;1.4;;
26824;SDS011;14402;48.178;11.566;2023-11-21T02:12:58;4.3;;;1.4;;
26824;SDS011;14402;48.178;11.566;2023-11-21T02:13:28;4.3;;;1.4;;
26824;SDS011;14402;48.178;11.566;2023-11-21T02:13:58;4.4;;;1.3;;
26824;SDS011;14402;48.178;11.566;2023-11-21T02:14:28;4.6;;;1.3;;
26824;SDS011;14402;48.178;11.566;2023-11-21T02:14:58;4.6;;;1.3;;
26824;SDS011;14402;48.178;11.566;2023-11-21T02:15:28;4.6;;;1.3;;
26824;SDS011;14402;48.178;11.566;2023-11-21T02:15:58;4.9;;;1.3;;
26824;SDS011;14402;48.178;11.566;2023-11-21T02:16:28;5.2;;;1.3;;
26824;SDS011;14402;48.178;11.566;2023-11-21T02:16:58;5.2;;;1.3;;
26824;SDS011;14402;48.178;11.566;2023-11-21T02:17:29;5.2;;;1.3;;
26824;SDS011;14402;48.178;11.566;2023-11-21T02:17:58;4.8;;;1.2;;
26824;SDS011;14402;48.178;11.566;2023-11-21T02:18:28;4.5;;;1.2;;
26824;SDS011;14402;48.178;11.566;2023-11-21T02:18:58;4.5;;;1.2;;
26824;SDS011;14402;48.178;11.566;2023-11-21T02:19:29;4.5;;;1.2;;
26824;SDS011;14402;48.178;11.566;2023-11-21T02:19:59;3.5;;;1.0;;
26824;SDS011;14402;48.178;11.566;2023-11-21T02:20:29;2.4;;;0.8;;
26824;SDS011;14402;48.178;11.566;2023-11-21T02:20:59;2.4;;;0.8;;
26824;SDS011;14402;48.178;11.566;2023-11-21T02:21:29;2.4;;;0.8;;
26824;SDS011;14402;48.178;11.566;2023-11-21T02:21:59;3.0;;;0.8;;
26824;SDS011;14402;48.178;11.566;2023-11-21T02:22:30;3.5;;;0.8;;
26824;SDS011;14402;48.178;11.566;2023-11-21T02:22:59;3.5;;;0.8;;
26824;SDS011;14402;48.178;11.566;2023-11-21T02:23:29;3.5;;;0.8;;
26824;SDS011;14402;48.178;11.566;2023-11-21T02:23:59;3.5;;;1.0;;
26824;SDS011;14402;48.178;11.566;2023-11-21T02:24:29;3.5;;;1.1;;
26824;SDS011;14402;48.178;11.566;2023-11-21T02:24:59;3.5;;;1.1;;
26824;SDS011;14402;48.178;11.566;2023-11-21T02:25:29;3.5;;;1.1;;
26824;SDS011;14402;48.178;11.566;2023-11-21T02:25:59;3.1;;;1.0;;
26824;SDS011;14402;48.178;11.566;2023-11-21T02:26:29;2.7;;;0.9;;
26824;SDS011;14402;48.178;11.566;2023-11-21T02:26:59;2.7;;;0.9;;
26824;SDS011;14402;48.178;11.566;2023-11-21T02:27:29;2.7;;;0.9;;
26824;SDS011;14402;48.178;11.566;2023-11-21T02:28:00;3.1;;;0.9;;
26824;SDS011;14402;48.178;11.566;2023-11-21T02:28:30;3.5;;;0.9;;
26824;SDS011;14402;48.178;11.566;2023-11-21T02:29:00;3.5;;;0.9;;
26824;SDS011;14402;48.178;11.566;2023-11-21T02:29:30;3.5;;;0.9;;
26824;SDS011;14402;48.178;11.566;2023-11-21T02:30:00;2.8;;;0.8;;
26824;SDS011;14402;48.178;11.566;2023-11-21T02:30:30;2.2;;;0.7;;
26824;SDS011;14402;48.178;11.566;2023-11-21T02:31:00;2.2;;;0.7;;
26824;SDS011;14402;48.178;11.566;2023-11-21T02:31:30;2.2;;;0.7;;
26824;SDS011;14402;48.178;11.566;2023-11-21T02:32:00;2.2;;;0.8;;
26824;SDS011;14402;48.178;11.566;2023-11-21T02:32:30;2.3;;;0.8;;
26824;SDS011;14402;48.178;11.566;2023-11-21T02:33:00;2.3;;;0.8;;
26824;SDS011;14402;48.178;11.566;2023-11-21T02:33:30;2.3;;;0.8;;
26824;SDS011;14402;48.178;11.566;2023-11-21T02:34:00;2.8;;;0.9;;
26824;SDS011;14402;48.178;11.566;2023-11-21T02:34:30;3.4;;;1.0;;
26824;SDS011;14402;48.178;11.566;2023-11-21T02:35:00;3.4;;;1.0;;
26824;SDS011;14402;48.178;11.566;2023-11-21T02:35:30;3.4;;;1.0;;
26824;SDS011;14402;48.178;11.566;2023-11-21T02:36:00;3.7;;;1.1;;
26824;SDS011;14402;48.178;11.566;2023-11-21T02:36:30;4.0;;;1.3;;
26824;SDS011;14402;48.178;11.566;2023-11-21T02:37:00;4.0;;;1.3;;
26824;SDS011;14402;48.178;11.566;2023-11-21T02:37:30;4.0;;;1.3;;
26824;SDS011;14402;48.178;11.566;2023-11-21T02:38:00;3.2;;;1.0;;
26824;SDS011;14402;48.178;11.566;2023-11-21T02:38:30;2.4;;;0.8;;
26824;SDS011;14402;48.178;11.566;2023-11-21T02:39:01;2.4;;;0.8;;
26824;SDS011;14402;48.178;11.566;2023-11-21T02:39:31;2.4;;;0.8;;
26824;SDS011;14402;48.178;11.566;2023-11-21T02:40:01;2.7;;;0.8;;
26824;SDS011;14402;48.178;11.566;2023-11-21T02:40:31;2.9;;;0.7;;
26824;SDS011;14402;48.178;11.566;2023-11-21T02:41:01;2.9;;;0.7;;
26824;SDS011;14402;48.178;11.566;2023-11-21T02:41:31;2.9;;;0.7;;
26824;SDS011;14402;48.178;11.566;2023-11-21T02:42:01;2.8;;;0.8;;
26824;SDS011;14402;48.178;11.566;2023-11-21T02:42:31;2.7;;;0.8;;
26824;SDS011;14402;48.178;11.566;2023-11-21T02:43:01;2.7;;;0.8;;
26824;SDS011;14402;48.178;11.566;2023-11-21T02:43:31;2.7;;;0.8;;
26824;SDS011;14402;48.178;11.566;2023-11-21T02:44:01;2.3;;;0.8;;
26824;SDS011;14402;48.178;11.566;2023-11-21T02:44:31;2.0;;;0.7;;
26824;SDS011;14402;48.178;11.566;2023-11-21T02:45:01;2.0;;;0.7;;
26824;SDS011;14402;48.178;11.566;2023-11-21T02:45:31;2.0;;;0.7;;
26824;SDS011;14402;48.178;11.566;2023-11-21T02:46:01;2.5;;;0.9;;
26824;SDS011;14402;48.178;11.566;2023-11-21T02:46:31;2.9;;;1.0;;
26824;SDS011;14402;48.178;11.566;2023-11-21T02:47:01;2.9;;;1.0;;
26824;SDS011;14402;48.178;11.566;2023-11-21T02:47:31;2.9;;;1.0;;
26824;SDS011;14402;48.178;11.566;2023-11-21T02:48:01;2.8;;;1.0;;
26824;SDS011;14402;48.178;11.566;2023-11-21T02:48:31;2.8;;;1.0;;
26824;SDS011;14402;48.178;11.566;2023-11-21T02:49:02;2.8;;;1.0;;
26824;SDS011;14402;48.178;11.566;2023-11-21T02:49:32;2.8;;;1.0;;
26824;SDS011;14402;48.178;11.566;2023-11-21T02:50:02;2.7;;;0.9;;
26824;SDS011;14402;48.178;11.566;2023-11-21T02:50:32;2.5;;;0.9;;
26824;SDS011;14402;48.178;11.566;2023-11-21T02:51:02;2.5;;;0.9;;
26824;SDS011;14402;48.178;11.566;2023-11-21T02:51:32;2.5;;;0.9;;
26824;SDS011;14402;48.178;11.566;2023-11-21T02:52:02;2.5;;;0.8;;
26824;SDS011;14402;48.178;11.566;2023-11-21T02:52:32;2.5;;;0.7;;
26824;SDS011;14402;48.178;11.566;2023-11-21T02:53:02;2.5;;;0.7;;
26824;SDS011;14402;48.178;11.566;2023-11-21T02:53:32;2.5;;;0.7;;
26824;SDS011;14402;48.178;11.566;2023-11-21T02:54:02;2.5;;;0.6;;
26824;SDS011;14402;48.178;11.566;2023-11-21T02:54:32;2.4;;;0.6;;
26824;SDS011;14402;48.178;11.566;2023-11-21T02:55:02;2.4;;;0.6;;
26824;SDS011;14402;48.178;11.566;2023-11-21T02:55:32;2.4;;;0.6;;
26824;SDS011;14402;48.178;11.566;2023-11-21T02:56:02;2.5;;;0.6;;
26824;SDS011;14402;48.178;11.566;2023-11-21T02:56:32;2.5;;;0.7;;
26824;SDS011;14402;48.178;11.566;2023-11-21T02:57:03;2.5;;;0.7;;
26824;SDS011;14402;48.178;11.566;2023-11-21T02:57:33;2.5;;;0.7;;
26824;SDS011;14402;48.178;11.566;2023-11-21T02:58:02;2.2;;;0.7;;
26824;SDS011;14402;48.178;11.566;2023-11-21T02:58:33;1.8;;;0.7;;
26824;SDS011;14402;48.178;11.566;2023-11-21T02:59:03;1.8;;;0.7;;
26824;SDS011;14402;48.178;11.566;2023-11-21T02:59:33;1.8;;;0.7;;
26824;SDS011;14402;48.178;11.566;2023-11-21T03:00:03;2.2;;;0.7;;
26824;SDS011;14402;48.178;11.566;2023-11-21T03:00:33;2.5;;;0.7;;
26824;SDS011;14402;48.178;11.566;2023-11-21T03:01:03;2.5;;;0.7;;
26824;SDS011;14402;48.178;11.566;2023-11-21T03:01:33;2.5;;;0.7;;
26824;SDS011;14402;48.178;11.566;2023-11-21T03:02:03;2.5;;;0.7;;
26824;SDS011;14402;48.178;11.566;2023-11-21T03:02:33;2.4;;;0.7;;
26824;SDS011;14402;48.178;11.566;2023-11-21T03:03:03;2.4;;;0.7;;
26824;SDS011;14402;48.178;11.566;2023-11-21T03:03:33;2.4;;;0.7;;